sensor_id;sensor_type;location;lat;lon;timestamp;P1;durP1;ratioP1;P2;durP2;ratioP2
24157;SDS011;12316;50.904;4.200;2024-02-26T00:02:22;3.33;;;1.50;;
24157;SDS011;12316;50.904;4.200;2024-02-26T00:04:49;1.85;;;1.60;;
24157;SDS011;12316;50.904;4.200;2024-02-26T00:07:15;2.47;;;1.60;;
24157;SDS011;12316;50.904;4.200;2024-02-26T00:09:41;4.60;;;1.80;;
24157;SDS011;12316;50.904;4.200;2024-02-26T00:12:07;3.70;;;1.92;;
24157;SDS011;12316;50.904;4.200;2024-02-26T00:14:33;2.90;;;1.70;;
24157;SDS011;12316;50.904;4.200;2024-02-26T00:16:59;1.80;;;1.40;;
24157;SDS011;12316;50.904;4.200;2024-02-26T00:19:25;2.05;;;1.50;;
24157;SDS011;12316;50.904;4.200;2024-02-26T00:21:51;4.13;;;1.80;;
24157;SDS011;12316;50.904;4.200;2024-02-26T00:24:19;1.88;;;1.30;;
24157;SDS011;12316;50.904;4.200;2024-02-26T00:26:45;4.75;;;1.67;;
24157;SDS011;12316;50.904;4.200;2024-02-26T00:29:11;3.42;;;1.45;;
24157;SDS011;12316;50.904;4.200;2024-02-26T00:31:36;4.22;;;1.70;;
24157;SDS011;12316;50.904;4.200;2024-02-26T00:34:03;1.63;;;1.30;;
24157;SDS011;12316;50.904;4.200;2024-02-26T00:36:28;4.45;;;1.30;;
24157;SDS011;12316;50.904;4.200;2024-02-26T00:38:54;1.58;;;1.30;;
24157;SDS011;12316;50.904;4.200;2024-02-26T00:41:20;1.80;;;1.38;;
24157;SDS011;12316;50.904;4.200;2024-02-26T00:43:46;3.50;;;1.55;;
24157;SDS011;12316;50.904;4.200;2024-02-26T00:46:12;1.75;;;1.23;;
24157;SDS011;12316;50.904;4.200;2024-02-26T00:48:38;3.05;;;1.60;;
24157;SDS011;12316;50.904;4.200;2024-02-26T00:51:04;3.97;;;1.40;;
24157;SDS011;12316;50.904;4.200;2024-02-26T00:53:33;2.03;;;1.40;;
24157;SDS011;12316;50.904;4.200;2024-02-26T00:55:59;3.90;;;1.65;;
24157;SDS011;12316;50.904;4.200;2024-02-26T00:58:25;2.45;;;1.52;;
24157;SDS011;12316;50.904;4.200;2024-02-26T01:00:51;3.25;;;1.67;;
24157;SDS011;12316;50.904;4.200;2024-02-26T01:03:17;3.08;;;1.65;;
24157;SDS011;12316;50.904;4.200;2024-02-26T01:05:43;2.60;;;1.65;;
24157;SDS011;12316;50.904;4.200;2024-02-26T01:08:09;2.75;;;1.60;;
24157;SDS011;12316;50.904;4.200;2024-02-26T01:10:35;3.22;;;1.40;;
24157;SDS011;12316;50.904;4.200;2024-02-26T01:13:01;2.22;;;1.40;;
24157;SDS011;12316;50.904;4.200;2024-02-26T01:15:27;4.50;;;1.70;;
24157;SDS011;12316;50.904;4.200;2024-02-26T01:17:53;1.63;;;1.50;;
24157;SDS011;12316;50.904;4.200;2024-02-26T01:20:19;2.55;;;1.55;;
24157;SDS011;12316;50.904;4.200;2024-02-26T01:22:46;2.47;;;1.70;;
24157;SDS011;12316;50.904;4.200;2024-02-26T01:25:12;2.42;;;1.60;;
24157;SDS011;12316;50.904;4.200;2024-02-26T01:27:38;2.22;;;1.42;;
24157;SDS011;12316;50.904;4.200;2024-02-26T01:30:07;4.05;;;1.50;;
24157;SDS011;12316;50.904;4.200;2024-02-26T01:32:34;4.20;;;1.42;;
24157;SDS011;12316;50.904;4.200;2024-02-26T01:35:01;2.65;;;1.33;;
24157;SDS011;12316;50.904;4.200;2024-02-26T01:37:30;2.42;;;1.48;;
24157;SDS011;12316;50.904;4.200;2024-02-26T01:39:56;1.73;;;1.40;;
24157;SDS011;12316;50.904;4.200;2024-02-26T01:42:21;1.77;;;1.40;;
24157;SDS011;12316;50.904;4.200;2024-02-26T01:44:47;2.75;;;1.65;;
24157;SDS011;12316;50.904;4.200;2024-02-26T01:47:13;2.50;;;1.40;;
24157;SDS011;12316;50.904;4.200;2024-02-26T01:49:39;1.30;;;1.20;;
24157;SDS011;12316;50.904;4.200;2024-02-26T01:52:06;3.78;;;1.30;;
24157;SDS011;12316;50.904;4.200;2024-02-26T01:54:36;2.63;;;1.30;;
24157;SDS011;12316;50.904;4.200;2024-02-26T01:57:03;2.30;;;1.45;;
24157;SDS011;12316;50.904;4.200;2024-02-26T01:59:30;1.65;;;1.13;;
24157;SDS011;12316;50.904;4.200;2024-02-26T02:01:59;2.00;;;1.10;;
24157;SDS011;12316;50.904;4.200;2024-02-26T02:04:27;3.40;;;1.35;;
24157;SDS011;12316;50.904;4.200;2024-02-26T02:06:54;2.72;;;1.17;;
24157;SDS011;12316;50.904;4.200;2024-02-26T02:09:20;3.78;;;1.30;;
24157;SDS011;12316;50.904;4.200;2024-02-26T02:11:48;1.83;;;1.10;;
24157;SDS011;12316;50.904;4.200;2024-02-26T02:14:14;2.28;;;1.20;;
24157;SDS011;12316;50.904;4.200;2024-02-26T02:16:40;2.08;;;1.30;;
24157;SDS011;12316;50.904;4.200;2024-02-26T02:19:05;1.60;;;1.00;;
24157;SDS011;12316;50.904;4.200;2024-02-26T02:21:31;3.55;;;0.95;;
24157;SDS011;12316;50.904;4.200;2024-02-26T02:23:57;2.65;;;1.10;;
24157;SDS011;12316;50.904;4.200;2024-02-26T02:26:22;1.20;;;1.10;;
24157;SDS011;12316;50.904;4.200;2024-02-26T02:28:48;1.65;;;1.17;;
24157;SDS011;12316;50.904;4.200;2024-02-26T02:31:14;2.33;;;1.10;;
24157;SDS011;12316;50.904;4.200;2024-02-26T02:33:41;1.42;;;1.00;;
24157;SDS011;12316;50.904;4.200;2024-02-26T02:36:07;1.27;;;1.10;;
24157;SDS011;12316;50.904;4.200;2024-02-26T02:38:35;3.67;;;1.20;;
24157;SDS011;12316;50.904;4.200;2024-02-26T02:41:02;3.72;;;1.13;;
24157;SDS011;12316;50.904;4.200;2024-02-26T02:43:27;3.45;;;1.00;;
24157;SDS011;12316;50.904;4.200;2024-02-26T02:45:53;2.60;;;1.30;;
24157;SDS011;12316;50.904;4.200;2024-02-26T02:48:19;3.05;;;1.20;;
24157;SDS011;12316;50.904;4.200;2024-02-26T02:50:45;3.50;;;1.10;;
24157;SDS011;12316;50.904;4.200;2024-02-26T02:53:11;1.70;;;1.00;;
24157;SDS011;12316;50.904;4.200;2024-02-26T02:55:36;2.13;;;1.13;;
24157;SDS011;12316;50.904;4.200;2024-02-26T02:58:02;3.92;;;1.40;;
24157;SDS011;12316;50.904;4.200;2024-02-26T03:00:28;1.70;;;1.40;;
24157;SDS011;12316;50.904;4.200;2024-02-26T03:02:53;1.92;;;1.45;;
24157;SDS011;12316;50.904;4.200;2024-02-26T03:05:19;4.10;;;1.70;;
24157;SDS011;12316;50.904;4.200;2024-02-26T03:07:45;3.42;;;1.80;;
24157;SDS011;12316;50.904;4.200;2024-02-26T03:10:10;2.65;;;1.80;;
24157;SDS011;12316;50.904;4.200;2024-02-26T03:12:36;2.95;;;2.10;;
24157;SDS011;12316;50.904;4.200;2024-02-26T03:15:02;2.85;;;2.28;;
24157;SDS011;12316;50.904;4.200;2024-02-26T03:17:28;4.00;;;2.40;;
24157;SDS011;12316;50.904;4.200;2024-02-26T03:19:54;2.95;;;2.42;;
24157;SDS011;12316;50.904;4.200;2024-02-26T03:22:20;2.60;;;2.28;;
24157;SDS011;12316;50.904;4.200;2024-02-26T03:24:46;2.80;;;2.40;;
24157;SDS011;12316;50.904;4.200;2024-02-26T03:27:12;3.30;;;2.40;;
24157;SDS011;12316;50.904;4.200;2024-02-26T03:29:38;4.63;;;2.40;;
24157;SDS011;12316;50.904;4.200;2024-02-26T03:32:04;3.75;;;2.50;;
24157;SDS011;12316;50.904;4.200;2024-02-26T03:34:31;3.10;;;2.55;;
24157;SDS011;12316;50.904;4.200;2024-02-26T03:36:59;4.50;;;2.70;;
24157;SDS011;12316;50.904;4.200;2024-02-26T03:39:25;4.80;;;2.83;;
24157;SDS011;12316;50.904;4.200;2024-02-26T03:41:51;3.85;;;3.00;;
24157;SDS011;12316;50.904;4.200;2024-02-26T03:44:17;4.22;;;3.33;;
24157;SDS011;12316;50.904;4.200;2024-02-26T03:46:44;4.65;;;3.05;;
24157;SDS011;12316;50.904;4.200;2024-02-26T03:49:10;3.60;;;3.17;;
24157;SDS011;12316;50.904;4.200;2024-02-26T03:51:35;4.35;;;3.47;;
24157;SDS011;12316;50.904;4.200;2024-02-26T03:54:02;4.13;;;3.72;;
24157;SDS011;12316;50.904;4.200;2024-02-26T03:56:28;5.10;;;3.72;;
24157;SDS011;12316;50.904;4.200;2024-02-26T03:58:54;5.15;;;3.67;;
24157;SDS011;12316;50.904;4.200;2024-02-26T04:01:20;5.22;;;4.25;;
24157;SDS011;12316;50.904;4.200;2024-02-26T04:03:45;5.10;;;4.13;;
24157;SDS011;12316;50.904;4.200;2024-02-26T04:06:11;4.55;;;3.85;;
24157;SDS011;12316;50.904;4.200;2024-02-26T04:08:39;5.32;;;4.05;;
24157;SDS011;12316;50.904;4.200;2024-02-26T04:11:06;6.85;;;4.25;;
24157;SDS011;12316;50.904;4.200;2024-02-26T04:13:35;6.78;;;4.90;;
24157;SDS011;12316;50.904;4.200;2024-02-26T04:16:04;6.00;;;4.63;;
24157;SDS011;12316;50.904;4.200;2024-02-26T04:18:31;7.05;;;5.43;;
24157;SDS011;12316;50.904;4.200;2024-02-26T04:20:57;6.93;;;5.30;;
24157;SDS011;12316;50.904;4.200;2024-02-26T04:23:23;6.32;;;5.55;;
24157;SDS011;12316;50.904;4.200;2024-02-26T04:25:49;7.65;;;5.43;;
24157;SDS011;12316;50.904;4.200;2024-02-26T04:28:14;7.28;;;6.13;;
24157;SDS011;12316;50.904;4.200;2024-02-26T04:30:40;6.57;;;5.97;;
24157;SDS011;12316;50.904;4.200;2024-02-26T04:33:06;7.70;;;6.50;;
24157;SDS011;12316;50.904;4.200;2024-02-26T04:35:32;7.50;;;6.35;;
24157;SDS011;12316;50.904;4.200;2024-02-26T04:37:58;6.93;;;6.00;;
24157;SDS011;12316;50.904;4.200;2024-02-26T04:40:23;8.40;;;6.70;;
24157;SDS011;12316;50.904;4.200;2024-02-26T04:42:49;8.77;;;6.78;;
24157;SDS011;12316;50.904;4.200;2024-02-26T04:45:15;7.28;;;5.88;;
24157;SDS011;12316;50.904;4.200;2024-02-26T04:47:40;10.38;;;6.90;;
24157;SDS011;12316;50.904;4.200;2024-02-26T04:50:07;8.98;;;7.10;;
24157;SDS011;12316;50.904;4.200;2024-02-26T04:52:33;9.30;;;6.90;;
24157;SDS011;12316;50.904;4.200;2024-02-26T04:54:58;9.20;;;7.18;;
24157;SDS011;12316;50.904;4.200;2024-02-26T04:57:25;10.20;;;7.90;;
24157;SDS011;12316;50.904;4.200;2024-02-26T04:59:51;9.30;;;7.22;;
24157;SDS011;12316;50.904;4.200;2024-02-26T05:02:17;9.00;;;7.55;;
24157;SDS011;12316;50.904;4.200;2024-02-26T05:04:43;8.88;;;7.43;;
24157;SDS011;12316;50.904;4.200;2024-02-26T05:07:09;11.25;;;8.55;;
24157;SDS011;12316;50.904;4.200;2024-02-26T05:09:34;10.20;;;8.45;;
24157;SDS011;12316;50.904;4.200;2024-02-26T05:12:00;13.38;;;9.48;;
24157;SDS011;12316;50.904;4.200;2024-02-26T05:14:26;10.45;;;8.77;;
24157;SDS011;12316;50.904;4.200;2024-02-26T05:16:52;12.73;;;9.95;;
24157;SDS011;12316;50.904;4.200;2024-02-26T05:19:18;15.18;;;11.25;;
24157;SDS011;12316;50.904;4.200;2024-02-26T05:21:43;13.00;;;10.50;;
24157;SDS011;12316;50.904;4.200;2024-02-26T05:24:09;14.68;;;11.68;;
24157;SDS011;12316;50.904;4.200;2024-02-26T05:26:35;14.38;;;11.38;;
24157;SDS011;12316;50.904;4.200;2024-02-26T05:29:01;14.65;;;12.20;;
24157;SDS011;12316;50.904;4.200;2024-02-26T05:31:27;13.95;;;12.15;;
24157;SDS011;12316;50.904;4.200;2024-02-26T05:33:54;13.80;;;11.48;;
24157;SDS011;12316;50.904;4.200;2024-02-26T05:36:22;14.32;;;12.23;;
24157;SDS011;12316;50.904;4.200;2024-02-26T05:38:48;12.82;;;11.50;;
24157;SDS011;12316;50.904;4.200;2024-02-26T05:41:15;15.02;;;12.55;;
24157;SDS011;12316;50.904;4.200;2024-02-26T05:43:41;13.77;;;12.10;;
24157;SDS011;12316;50.904;4.200;2024-02-26T05:46:07;14.40;;;12.35;;
24157;SDS011;12316;50.904;4.200;2024-02-26T05:48:33;13.60;;;11.98;;
24157;SDS011;12316;50.904;4.200;2024-02-26T05:50:59;15.98;;;12.77;;
24157;SDS011;12316;50.904;4.200;2024-02-26T05:53:24;13.68;;;12.27;;
24157;SDS011;12316;50.904;4.200;2024-02-26T05:55:50;14.20;;;12.23;;
24157;SDS011;12316;50.904;4.200;2024-02-26T05:58:16;14.10;;;12.20;;
24157;SDS011;12316;50.904;4.200;2024-02-26T06:00:41;14.88;;;12.45;;
24157;SDS011;12316;50.904;4.200;2024-02-26T06:03:07;13.02;;;11.70;;
24157;SDS011;12316;50.904;4.200;2024-02-26T06:05:33;14.23;;;12.13;;
24157;SDS011;12316;50.904;4.200;2024-02-26T06:07:58;14.02;;;12.35;;
24157;SDS011;12316;50.904;4.200;2024-02-26T06:10:24;13.93;;;12.45;;
24157;SDS011;12316;50.904;4.200;2024-02-26T06:12:49;12.98;;;11.63;;
24157;SDS011;12316;50.904;4.200;2024-02-26T06:15:15;14.32;;;11.75;;
24157;SDS011;12316;50.904;4.200;2024-02-26T06:17:41;13.95;;;11.10;;
24157;SDS011;12316;50.904;4.200;2024-02-26T06:20:07;12.90;;;11.50;;
24157;SDS011;12316;50.904;4.200;2024-02-26T06:22:37;12.48;;;10.98;;
24157;SDS011;12316;50.904;4.200;2024-02-26T06:25:04;12.73;;;11.35;;
24157;SDS011;12316;50.904;4.200;2024-02-26T06:27:31;13.20;;;11.80;;
24157;SDS011;12316;50.904;4.200;2024-02-26T06:29:56;13.40;;;11.55;;
24157;SDS011;12316;50.904;4.200;2024-02-26T06:32:22;12.63;;;11.32;;
24157;SDS011;12316;50.904;4.200;2024-02-26T06:34:48;12.73;;;11.40;;
24157;SDS011;12316;50.904;4.200;2024-02-26T06:37:13;13.82;;;11.45;;
24157;SDS011;12316;50.904;4.200;2024-02-26T06:39:39;12.45;;;11.13;;
24157;SDS011;12316;50.904;4.200;2024-02-26T06:42:06;12.77;;;11.48;;
24157;SDS011;12316;50.904;4.200;2024-02-26T06:44:31;13.43;;;11.77;;
24157;SDS011;12316;50.904;4.200;2024-02-26T06:46:58;13.48;;;12.00;;
24157;SDS011;12316;50.904;4.200;2024-02-26T06:49:24;13.65;;;12.35;;
24157;SDS011;12316;50.904;4.200;2024-02-26T06:51:50;14.25;;;12.70;;
24157;SDS011;12316;50.904;4.200;2024-02-26T06:54:16;14.90;;;12.48;;
24157;SDS011;12316;50.904;4.200;2024-02-26T06:56:42;13.48;;;12.07;;
24157;SDS011;12316;50.904;4.200;2024-02-26T06:59:08;13.70;;;12.30;;
24157;SDS011;12316;50.904;4.200;2024-02-26T07:01:33;15.32;;;13.82;;
24157;SDS011;12316;50.904;4.200;2024-02-26T07:03:59;14.35;;;12.65;;
24157;SDS011;12316;50.904;4.200;2024-02-26T07:06:25;14.23;;;12.73;;
24157;SDS011;12316;50.904;4.200;2024-02-26T07:08:54;16.80;;;13.07;;
24157;SDS011;12316;50.904;4.200;2024-02-26T07:11:20;14.70;;;13.20;;
24157;SDS011;12316;50.904;4.200;2024-02-26T07:13:46;14.30;;;12.90;;
24157;SDS011;12316;50.904;4.200;2024-02-26T07:16:12;13.77;;;12.43;;
24157;SDS011;12316;50.904;4.200;2024-02-26T07:18:38;14.98;;;13.40;;
24157;SDS011;12316;50.904;4.200;2024-02-26T07:21:04;15.40;;;13.88;;
24157;SDS011;12316;50.904;4.200;2024-02-26T07:23:30;15.32;;;13.70;;
24157;SDS011;12316;50.904;4.200;2024-02-26T07:25:56;14.77;;;13.27;;
24157;SDS011;12316;50.904;4.200;2024-02-26T07:28:22;14.32;;;12.90;;
24157;SDS011;12316;50.904;4.200;2024-02-26T07:30:49;16.92;;;13.82;;
24157;SDS011;12316;50.904;4.200;2024-02-26T07:33:14;15.32;;;13.82;;
24157;SDS011;12316;50.904;4.200;2024-02-26T07:35:40;15.32;;;12.82;;
24157;SDS011;12316;50.904;4.200;2024-02-26T07:38:06;14.00;;;12.60;;
24157;SDS011;12316;50.904;4.200;2024-02-26T07:40:31;14.85;;;13.25;;
24157;SDS011;12316;50.904;4.200;2024-02-26T07:42:57;13.73;;;12.32;;
24157;SDS011;12316;50.904;4.200;2024-02-26T07:45:23;13.02;;;11.73;;
24157;SDS011;12316;50.904;4.200;2024-02-26T07:47:48;13.70;;;12.30;;
24157;SDS011;12316;50.904;4.200;2024-02-26T07:50:14;12.18;;;10.98;;
24157;SDS011;12316;50.904;4.200;2024-02-26T07:52:40;13.45;;;12.15;;
24157;SDS011;12316;50.904;4.200;2024-02-26T07:55:06;12.48;;;11.27;;
24157;SDS011;12316;50.904;4.200;2024-02-26T07:57:35;12.52;;;11.23;;
24157;SDS011;12316;50.904;4.200;2024-02-26T08:00:01;11.73;;;10.52;;
24157;SDS011;12316;50.904;4.200;2024-02-26T08:02:27;10.90;;;9.80;;
24157;SDS011;12316;50.904;4.200;2024-02-26T08:04:53;10.68;;;9.65;;
24157;SDS011;12316;50.904;4.200;2024-02-26T08:07:19;11.63;;;10.43;;
24157;SDS011;12316;50.904;4.200;2024-02-26T08:09:46;11.07;;;9.98;;
24157;SDS011;12316;50.904;4.200;2024-02-26T08:12:12;10.80;;;9.70;;
24157;SDS011;12316;50.904;4.200;2024-02-26T08:14:37;10.20;;;9.02;;
24157;SDS011;12316;50.904;4.200;2024-02-26T08:17:03;11.07;;;10.05;;
24157;SDS011;12316;50.904;4.200;2024-02-26T08:19:29;10.02;;;9.02;;
24157;SDS011;12316;50.904;4.200;2024-02-26T08:21:55;10.43;;;9.32;;
24157;SDS011;12316;50.904;4.200;2024-02-26T08:24:20;10.00;;;9.00;;
24157;SDS011;12316;50.904;4.200;2024-02-26T08:26:46;11.45;;;9.10;;
24157;SDS011;12316;50.904;4.200;2024-02-26T08:29:12;10.25;;;9.25;;
24157;SDS011;12316;50.904;4.200;2024-02-26T08:31:37;12.10;;;9.55;;
24157;SDS011;12316;50.904;4.200;2024-02-26T08:34:03;10.05;;;9.05;;
24157;SDS011;12316;50.904;4.200;2024-02-26T08:36:33;9.95;;;8.95;;
24157;SDS011;12316;50.904;4.200;2024-02-26T08:38:59;8.90;;;8.10;;
24157;SDS011;12316;50.904;4.200;2024-02-26T08:41:25;9.77;;;8.23;;
24157;SDS011;12316;50.904;4.200;2024-02-26T08:43:51;11.38;;;9.27;;
24157;SDS011;12316;50.904;4.200;2024-02-26T08:46:16;10.25;;;9.18;;
24157;SDS011;12316;50.904;4.200;2024-02-26T08:48:42;10.68;;;9.55;;
24157;SDS011;12316;50.904;4.200;2024-02-26T08:51:08;10.30;;;9.20;;
24157;SDS011;12316;50.904;4.200;2024-02-26T08:53:35;10.32;;;9.32;;
24157;SDS011;12316;50.904;4.200;2024-02-26T08:56:01;10.65;;;9.30;;
24157;SDS011;12316;50.904;4.200;2024-02-26T08:58:30;10.52;;;9.50;;
24157;SDS011;12316;50.904;4.200;2024-02-26T09:00:56;9.80;;;8.80;;
24157;SDS011;12316;50.904;4.200;2024-02-26T09:03:22;9.52;;;8.43;;
24157;SDS011;12316;50.904;4.200;2024-02-26T09:05:48;10.25;;;9.05;;
24157;SDS011;12316;50.904;4.200;2024-02-26T09:08:14;10.02;;;8.93;;
24157;SDS011;12316;50.904;4.200;2024-02-26T09:10:40;10.13;;;9.13;;
24157;SDS011;12316;50.904;4.200;2024-02-26T09:13:05;11.27;;;9.02;;
24157;SDS011;12316;50.904;4.200;2024-02-26T09:15:31;11.20;;;10.00;;
24157;SDS011;12316;50.904;4.200;2024-02-26T09:17:57;10.73;;;9.32;;
24157;SDS011;12316;50.904;4.200;2024-02-26T09:20:23;11.13;;;9.68;;
24157;SDS011;12316;50.904;4.200;2024-02-26T09:22:49;11.13;;;9.63;;
24157;SDS011;12316;50.904;4.200;2024-02-26T09:25:16;11.32;;;10.13;;
24157;SDS011;12316;50.904;4.200;2024-02-26T09:27:44;13.23;;;10.32;;
24157;SDS011;12316;50.904;4.200;2024-02-26T09:30:11;11.95;;;10.35;;
24157;SDS011;12316;50.904;4.200;2024-02-26T09:32:38;13.43;;;10.68;;
24157;SDS011;12316;50.904;4.200;2024-02-26T09:35:05;12.02;;;10.73;;
24157;SDS011;12316;50.904;4.200;2024-02-26T09:37:31;11.85;;;9.82;;
24157;SDS011;12316;50.904;4.200;2024-02-26T09:39:58;11.60;;;10.40;;
24157;SDS011;12316;50.904;4.200;2024-02-26T09:42:26;12.20;;;10.40;;
24157;SDS011;12316;50.904;4.200;2024-02-26T09:44:55;11.88;;;10.02;;
24157;SDS011;12316;50.904;4.200;2024-02-26T09:47:24;11.13;;;9.80;;
24157;SDS011;12316;50.904;4.200;2024-02-26T09:49:53;11.40;;;9.98;;
24157;SDS011;12316;50.904;4.200;2024-02-26T09:52:21;12.27;;;10.88;;
24157;SDS011;12316;50.904;4.200;2024-02-26T09:54:48;12.48;;;11.23;;
24157;SDS011;12316;50.904;4.200;2024-02-26T09:57:15;10.65;;;9.55;;
24157;SDS011;12316;50.904;4.200;2024-02-26T09:59:42;10.90;;;9.80;;
24157;SDS011;12316;50.904;4.200;2024-02-26T10:02:09;11.45;;;10.20;;
24157;SDS011;12316;50.904;4.200;2024-02-26T10:04:40;11.88;;;10.52;;
24157;SDS011;12316;50.904;4.200;2024-02-26T10:07:10;11.13;;;9.88;;
24157;SDS011;12316;50.904;4.200;2024-02-26T10:09:37;12.95;;;10.63;;
24157;SDS011;12316;50.904;4.200;2024-02-26T10:12:06;12.63;;;10.57;;
24157;SDS011;12316;50.904;4.200;2024-02-26T10:14:35;12.15;;;10.75;;
24157;SDS011;12316;50.904;4.200;2024-02-26T10:17:01;12.00;;;9.63;;
24157;SDS011;12316;50.904;4.200;2024-02-26T10:19:28;12.43;;;9.82;;
24157;SDS011;12316;50.904;4.200;2024-02-26T10:21:58;10.45;;;9.35;;
24157;SDS011;12316;50.904;4.200;2024-02-26T10:24:27;10.13;;;9.13;;
24157;SDS011;12316;50.904;4.200;2024-02-26T10:26:56;11.32;;;8.55;;
24157;SDS011;12316;50.904;4.200;2024-02-26T10:29:25;9.65;;;8.65;;
24157;SDS011;12316;50.904;4.200;2024-02-26T10:31:51;9.52;;;8.52;;
24157;SDS011;12316;50.904;4.200;2024-02-26T10:34:17;9.32;;;8.43;;
24157;SDS011;12316;50.904;4.200;2024-02-26T10:36:44;9.30;;;8.40;;
24157;SDS011;12316;50.904;4.200;2024-02-26T10:39:11;8.85;;;7.95;;
24157;SDS011;12316;50.904;4.200;2024-02-26T10:41:40;7.97;;;7.18;;
24157;SDS011;12316;50.904;4.200;2024-02-26T10:44:10;8.43;;;7.55;;
24157;SDS011;12316;50.904;4.200;2024-02-26T10:46:37;8.50;;;7.68;;
24157;SDS011;12316;50.904;4.200;2024-02-26T10:49:08;8.35;;;7.55;;
24157;SDS011;12316;50.904;4.200;2024-02-26T10:51:38;8.32;;;7.15;;
24157;SDS011;12316;50.904;4.200;2024-02-26T10:54:08;8.18;;;7.38;;
24157;SDS011;12316;50.904;4.200;2024-02-26T10:56:37;9.50;;;7.40;;
24157;SDS011;12316;50.904;4.200;2024-02-26T10:59:06;8.05;;;7.25;;
24157;SDS011;12316;50.904;4.200;2024-02-26T11:01:34;9.90;;;8.23;;
24157;SDS011;12316;50.904;4.200;2024-02-26T11:04:02;7.85;;;6.93;;
24157;SDS011;12316;50.904;4.200;2024-02-26T11:06:28;7.82;;;7.03;;
24157;SDS011;12316;50.904;4.200;2024-02-26T11:08:54;8.32;;;7.45;;
24157;SDS011;12316;50.904;4.200;2024-02-26T11:11:21;11.65;;;8.15;;
24157;SDS011;12316;50.904;4.200;2024-02-26T11:13:48;10.43;;;7.63;;
24157;SDS011;12316;50.904;4.200;2024-02-26T11:16:19;8.25;;;7.38;;
24157;SDS011;12316;50.904;4.200;2024-02-26T11:18:47;8.50;;;7.60;;
24157;SDS011;12316;50.904;4.200;2024-02-26T11:21:16;8.55;;;7.32;;
24157;SDS011;12316;50.904;4.200;2024-02-26T11:23:48;9.93;;;6.72;;
24157;SDS011;12316;50.904;4.200;2024-02-26T11:26:14;7.05;;;6.22;;
24157;SDS011;12316;50.904;4.200;2024-02-26T11:28:42;8.60;;;7.68;;
24157;SDS011;12316;50.904;4.200;2024-02-26T11:31:09;9.73;;;7.60;;
24157;SDS011;12316;50.904;4.200;2024-02-26T11:33:36;7.70;;;6.50;;
24157;SDS011;12316;50.904;4.200;2024-02-26T11:36:11;7.72;;;6.80;;
24157;SDS011;12316;50.904;4.200;2024-02-26T11:38:39;8.65;;;7.20;;
24157;SDS011;12316;50.904;4.200;2024-02-26T11:41:05;7.25;;;6.55;;
24157;SDS011;12316;50.904;4.200;2024-02-26T11:46:40;7.80;;;6.75;;
24157;SDS011;12316;50.904;4.200;2024-02-26T11:51:56;7.55;;;6.45;;
24157;SDS011;12316;50.904;4.200;2024-02-26T11:54:43;6.82;;;5.82;;
24157;SDS011;12316;50.904;4.200;2024-02-26T12:02:39;7.65;;;6.85;;
24157;SDS011;12316;50.904;4.200;2024-02-26T12:07:54;7.43;;;5.85;;
24157;SDS011;12316;50.904;4.200;2024-02-26T12:10:31;7.97;;;6.40;;
24157;SDS011;12316;50.904;4.200;2024-02-26T12:13:10;9.02;;;6.63;;
24157;SDS011;12316;50.904;4.200;2024-02-26T12:15:41;7.25;;;6.50;;
24157;SDS011;12316;50.904;4.200;2024-02-26T12:18:09;7.50;;;6.35;;
24157;SDS011;12316;50.904;4.200;2024-02-26T12:20:38;6.53;;;5.82;;
24157;SDS011;12316;50.904;4.200;2024-02-26T12:23:04;7.90;;;6.38;;
24157;SDS011;12316;50.904;4.200;2024-02-26T12:25:30;7.32;;;6.10;;
24157;SDS011;12316;50.904;4.200;2024-02-26T12:27:58;7.07;;;6.38;;
24157;SDS011;12316;50.904;4.200;2024-02-26T12:30:24;8.20;;;7.10;;
24157;SDS011;12316;50.904;4.200;2024-02-26T12:32:55;7.65;;;6.57;;
24157;SDS011;12316;50.904;4.200;2024-02-26T12:35:22;10.80;;;6.47;;
24157;SDS011;12316;50.904;4.200;2024-02-26T12:37:49;9.32;;;6.50;;
24157;SDS011;12316;50.904;4.200;2024-02-26T12:40:16;7.60;;;6.78;;
24157;SDS011;12316;50.904;4.200;2024-02-26T12:42:42;10.98;;;7.35;;
24157;SDS011;12316;50.904;4.200;2024-02-26T12:45:09;11.23;;;8.68;;
24157;SDS011;12316;50.904;4.200;2024-02-26T12:47:39;8.23;;;6.95;;
24157;SDS011;12316;50.904;4.200;2024-02-26T12:50:06;7.93;;;7.13;;
24157;SDS011;12316;50.904;4.200;2024-02-26T12:52:37;8.73;;;7.68;;
24157;SDS011;12316;50.904;4.200;2024-02-26T12:55:05;11.65;;;8.60;;
24157;SDS011;12316;50.904;4.200;2024-02-26T12:57:37;11.45;;;8.85;;
24157;SDS011;12316;50.904;4.200;2024-02-26T13:00:04;10.73;;;8.57;;
24157;SDS011;12316;50.904;4.200;2024-02-26T13:02:34;13.23;;;8.25;;
24157;SDS011;12316;50.904;4.200;2024-02-26T13:05:02;10.18;;;7.80;;
24157;SDS011;12316;50.904;4.200;2024-02-26T13:07:29;12.25;;;9.65;;
24157;SDS011;12316;50.904;4.200;2024-02-26T13:09:55;12.02;;;9.60;;
24157;SDS011;12316;50.904;4.200;2024-02-26T13:12:20;23.73;;;15.05;;
24157;SDS011;12316;50.904;4.200;2024-02-26T13:14:46;12.65;;;10.20;;
24157;SDS011;12316;50.904;4.200;2024-02-26T13:17:12;9.73;;;8.20;;
24157;SDS011;12316;50.904;4.200;2024-02-26T13:19:48;11.13;;;8.65;;
24157;SDS011;12316;50.904;4.200;2024-02-26T13:22:15;9.98;;;8.27;;
24157;SDS011;12316;50.904;4.200;2024-02-26T13:24:41;11.82;;;9.25;;
24157;SDS011;12316;50.904;4.200;2024-02-26T13:27:07;10.95;;;9.00;;
24157;SDS011;12316;50.904;4.200;2024-02-26T13:29:33;10.60;;;8.98;;
24157;SDS011;12316;50.904;4.200;2024-02-26T13:31:59;10.13;;;7.95;;
24157;SDS011;12316;50.904;4.200;2024-02-26T13:34:25;9.07;;;7.88;;
24157;SDS011;12316;50.904;4.200;2024-02-26T13:36:55;11.85;;;8.68;;
24157;SDS011;12316;50.904;4.200;2024-02-26T13:39:25;11.32;;;8.10;;
24157;SDS011;12316;50.904;4.200;2024-02-26T13:41:53;11.00;;;8.40;;
24157;SDS011;12316;50.904;4.200;2024-02-26T13:44:19;9.75;;;7.88;;
24157;SDS011;12316;50.904;4.200;2024-02-26T13:46:45;10.18;;;8.30;;
24157;SDS011;12316;50.904;4.200;2024-02-26T13:49:12;14.73;;;10.80;;
24157;SDS011;12316;50.904;4.200;2024-02-26T13:51:40;11.50;;;8.57;;
24157;SDS011;12316;50.904;4.200;2024-02-26T13:54:07;10.73;;;8.40;;
24157;SDS011;12316;50.904;4.200;2024-02-26T13:56:32;13.38;;;10.40;;
24157;SDS011;12316;50.904;4.200;2024-02-26T13:58:58;9.50;;;7.60;;
24157;SDS011;12316;50.904;4.200;2024-02-26T14:01:25;11.82;;;8.65;;
24157;SDS011;12316;50.904;4.200;2024-02-26T14:03:50;10.23;;;7.80;;
24157;SDS011;12316;50.904;4.200;2024-02-26T14:06:16;9.13;;;7.18;;
24157;SDS011;12316;50.904;4.200;2024-02-26T14:08:42;10.45;;;7.30;;
24157;SDS011;12316;50.904;4.200;2024-02-26T14:11:08;8.75;;;7.32;;
24157;SDS011;12316;50.904;4.200;2024-02-26T14:13:33;9.48;;;7.40;;
24157;SDS011;12316;50.904;4.200;2024-02-26T14:15:59;9.27;;;7.30;;
24157;SDS011;12316;50.904;4.200;2024-02-26T14:18:25;7.90;;;6.60;;
24157;SDS011;12316;50.904;4.200;2024-02-26T14:20:52;8.18;;;6.93;;
24157;SDS011;12316;50.904;4.200;2024-02-26T14:23:17;8.50;;;6.50;;
24157;SDS011;12316;50.904;4.200;2024-02-26T14:25:43;9.15;;;6.95;;
24157;SDS011;12316;50.904;4.200;2024-02-26T14:28:09;10.50;;;7.32;;
24157;SDS011;12316;50.904;4.200;2024-02-26T14:30:34;9.35;;;7.25;;
24157;SDS011;12316;50.904;4.200;2024-02-26T14:33:00;7.88;;;6.72;;
24157;SDS011;12316;50.904;4.200;2024-02-26T14:35:26;9.75;;;7.38;;
24157;SDS011;12316;50.904;4.200;2024-02-26T14:37:52;9.85;;;7.40;;
24157;SDS011;12316;50.904;4.200;2024-02-26T14:40:19;8.75;;;7.40;;
24157;SDS011;12316;50.904;4.200;2024-02-26T14:42:44;10.57;;;7.65;;
24157;SDS011;12316;50.904;4.200;2024-02-26T14:45:10;9.02;;;7.30;;
24157;SDS011;12316;50.904;4.200;2024-02-26T14:47:36;10.38;;;8.25;;
24157;SDS011;12316;50.904;4.200;2024-02-26T14:50:02;8.77;;;7.45;;